createdAt,value
2023-05-31T00:01:14.947Z,60.28
2023-05-31T00:03:44.205Z,60.29
2023-05-31T00:06:11.715Z,60.31
2023-05-31T00:08:39.118Z,60.45
2023-05-31T00:11:07.174Z,60.38
2023-05-31T00:13:33.659Z,60.17
2023-05-31T00:16:00.122Z,60.25
2023-05-31T00:18:26.718Z,60.27
2023-05-31T00:20:53.317Z,60.45
2023-05-31T00:23:19.795Z,60.47
2023-05-31T00:25:46.417Z,60.28
2023-05-31T00:28:12.788Z,59.86
2023-05-31T00:30:39.267Z,60.02
2023-05-31T00:33:06.314Z,60.27
2023-05-31T00:35:32.961Z,60.25
2023-05-31T00:38:00.905Z,60.22
2023-05-31T00:40:27.304Z,60.11
2023-05-31T00:42:53.752Z,60.24
2023-05-31T00:45:20.389Z,60.25
2023-05-31T00:47:46.954Z,60.27
2023-05-31T00:50:13.972Z,60.30
2023-05-31T00:52:40.763Z,60.29
2023-05-31T00:55:08.108Z,60.33
2023-05-31T00:57:34.688Z,60.25
2023-05-31T01:00:01.590Z,60.10
2023-05-31T01:02:28.142Z,60.22
2023-05-31T01:04:56.360Z,60.23
2023-05-31T01:07:23.310Z,60.23
2023-05-31T01:09:49.836Z,60.28
2023-05-31T01:12:33.585Z,60.18
2023-05-31T01:15:14.528Z,60.29
2023-05-31T01:18:02.123Z,60.23
2023-05-31T01:20:34.188Z,60.29
2023-05-31T01:23:18.888Z,60.22
2023-05-31T01:26:13.892Z,60.08
2023-05-31T01:28:42.834Z,60.34
2023-05-31T01:31:12.921Z,60.35
2023-05-31T01:33:40.332Z,60.25
2023-05-31T01:36:06.936Z,60.42
2023-05-31T01:38:33.428Z,60.30
2023-05-31T01:41:00.750Z,60.34
2023-05-31T01:43:28.749Z,60.18
2023-05-31T01:45:57.528Z,60.24
2023-05-31T01:48:25.631Z,60.38
2023-05-31T01:50:53.405Z,60.25
2023-05-31T01:53:20.110Z,60.22
2023-05-31T01:55:48.165Z,60.21
2023-05-31T01:58:15.609Z,60.37
2023-05-31T02:00:42.475Z,60.33
2023-05-31T02:03:09.362Z,60.15
2023-05-31T02:05:35.844Z,60.22
2023-05-31T02:08:02.247Z,60.32
2023-05-31T02:10:28.782Z,60.46
2023-05-31T02:12:56.042Z,60.47
2023-05-31T02:15:24.235Z,60.27
2023-05-31T02:17:53.661Z,60.27
2023-05-31T02:20:20.340Z,60.31
2023-05-31T02:22:47.762Z,60.30
2023-05-31T02:25:15.277Z,60.37
2023-05-31T02:27:42.776Z,60.36
2023-05-31T02:30:10.636Z,60.23
2023-05-31T02:32:38.362Z,60.27
2023-05-31T02:35:06.984Z,60.30
2023-05-31T02:37:33.858Z,60.32
2023-05-31T02:40:00.325Z,60.24
2023-05-31T02:42:26.938Z,60.40
2023-05-31T02:44:53.350Z,60.67
2023-05-31T02:47:20.084Z,60.43
2023-05-31T02:49:46.520Z,60.40
2023-05-31T02:52:13.109Z,60.41
2023-05-31T02:54:39.520Z,60.23
2023-05-31T02:57:05.884Z,60.42
2023-05-31T02:59:32.343Z,60.34
2023-05-31T03:01:58.811Z,60.32
2023-05-31T03:04:26.299Z,60.25
2023-05-31T03:06:53.470Z,60.29
2023-05-31T03:09:19.985Z,60.36
2023-05-31T03:11:46.654Z,60.29
2023-05-31T03:14:13.466Z,60.37
2023-05-31T03:16:40.013Z,60.24
2023-05-31T03:19:06.558Z,60.29
2023-05-31T03:21:33.059Z,60.29
2023-05-31T03:23:59.631Z,60.43
2023-05-31T03:26:27.005Z,60.29
2023-05-31T03:28:53.908Z,60.21
2023-05-31T03:31:20.565Z,60.20
2023-05-31T03:33:47.171Z,60.35
2023-05-31T03:36:13.702Z,60.23
2023-05-31T03:38:40.196Z,60.31
2023-05-31T03:41:06.628Z,60.38
2023-05-31T03:43:33.073Z,60.35
2023-05-31T03:46:02.428Z,60.32
2023-05-31T03:48:29.446Z,60.13
2023-05-31T03:50:58.001Z,60.09
2023-05-31T03:56:06.418Z,60.42
2023-05-31T03:58:32.855Z,60.56
2023-05-31T04:00:59.388Z,60.36
2023-05-31T04:03:26.502Z,60.48
2023-05-31T04:05:53.128Z,60.64
2023-05-31T04:08:19.603Z,61.17
2023-05-31T04:10:46.081Z,61.15
2023-05-31T04:13:12.669Z,61.21
2023-05-31T04:15:39.094Z,61.01
2023-05-31T04:18:06.087Z,61.17
2023-05-31T04:20:32.837Z,61.02
2023-05-31T04:22:59.317Z,60.72
2023-05-31T04:25:26.105Z,60.54
2023-05-31T04:27:52.668Z,60.63
2023-05-31T04:30:19.330Z,60.34
2023-05-31T04:32:45.805Z,60.37
2023-05-31T04:35:12.373Z,60.15
2023-05-31T04:37:40.196Z,60.22
2023-05-31T04:40:10.193Z,60.08
2023-05-31T04:42:41.333Z,60.18
2023-05-31T04:45:08.538Z,60.08
2023-05-31T04:47:35.067Z,60.05
2023-05-31T04:50:01.484Z,60.00
2023-05-31T04:52:30.416Z,59.91
2023-05-31T04:54:58.102Z,59.86
2023-05-31T04:57:25.050Z,59.89
2023-05-31T04:59:52.095Z,60.19
2023-05-31T05:02:19.666Z,60.19
2023-05-31T05:04:46.578Z,60.09
2023-05-31T05:07:13.026Z,60.02
2023-05-31T05:09:39.403Z,59.77
2023-05-31T05:12:06.947Z,59.98
2023-05-31T05:14:33.414Z,59.85
2023-05-31T05:16:59.913Z,59.64
2023-05-31T05:19:26.952Z,59.45
2023-05-31T05:21:53.427Z,59.55
2023-05-31T05:24:19.858Z,59.52
2023-05-31T05:26:46.231Z,59.37
2023-05-31T05:29:12.786Z,59.48
2023-05-31T05:31:39.336Z,59.35
2023-05-31T05:34:05.969Z,59.22
2023-05-31T05:36:32.618Z,59.04
2023-05-31T05:39:05.020Z,59.06
2023-05-31T05:41:31.787Z,59.15
2023-05-31T05:43:58.580Z,59.13
2023-05-31T05:46:25.097Z,59.19
2023-05-31T05:48:51.833Z,59.10
2023-05-31T05:51:18.357Z,58.95
2023-05-31T05:53:44.796Z,58.85
2023-05-31T05:56:12.597Z,58.86
2023-05-31T05:58:38.988Z,58.96
2023-05-31T06:01:05.542Z,58.82
2023-05-31T06:03:32.080Z,58.72
2023-05-31T06:05:58.752Z,58.80
2023-05-31T06:08:25.281Z,58.76
2023-05-31T06:10:51.883Z,58.68
2023-05-31T06:13:19.451Z,58.70
2023-05-31T06:15:45.833Z,58.75
2023-05-31T06:18:12.278Z,59.02
2023-05-31T06:20:38.930Z,58.03
2023-05-31T06:23:05.380Z,58.44
2023-05-31T06:25:31.969Z,58.38
2023-05-31T06:27:58.643Z,58.65
2023-05-31T06:30:25.233Z,58.30
2023-05-31T06:32:51.973Z,58.49
2023-05-31T06:35:18.616Z,58.44
2023-05-31T06:37:47.116Z,58.27
2023-05-31T06:40:13.498Z,58.30
2023-05-31T06:42:39.870Z,58.27
2023-05-31T06:45:07.086Z,57.46
2023-05-31T06:47:33.961Z,57.25
2023-05-31T06:50:00.498Z,57.98
2023-05-31T06:52:26.938Z,57.91
2023-05-31T06:54:53.363Z,58.17
2023-05-31T06:57:19.894Z,57.87
2023-05-31T06:59:46.437Z,57.92
2023-05-31T07:02:12.905Z,57.89
2023-05-31T07:04:39.366Z,57.82
2023-05-31T07:07:06.196Z,57.78
2023-05-31T07:09:32.642Z,57.67
2023-05-31T07:11:59.081Z,58.16
2023-05-31T07:14:25.625Z,57.61
2023-05-31T07:16:52.110Z,57.65
2023-05-31T07:19:18.502Z,57.83
2023-05-31T07:21:44.908Z,57.58
2023-05-31T07:24:11.431Z,57.46
2023-05-31T07:26:37.937Z,57.43
2023-05-31T07:29:04.307Z,57.42
2023-05-31T07:31:30.739Z,57.55
2023-05-31T07:33:57.213Z,57.55
2023-05-31T07:36:26.608Z,57.60
2023-05-31T07:38:53.304Z,57.66
2023-05-31T07:41:19.937Z,57.59
2023-05-31T07:43:46.990Z,57.75
2023-05-31T07:46:13.765Z,57.66
2023-05-31T07:48:40.718Z,57.58
2023-05-31T07:51:07.156Z,57.62
2023-05-31T07:53:33.574Z,57.52
2023-05-31T07:55:59.968Z,57.53
2023-05-31T07:58:26.394Z,57.52
2023-05-31T08:00:54.207Z,57.16
2023-05-31T08:03:20.872Z,57.19
2023-05-31T08:05:50.092Z,57.55
2023-05-31T08:08:17.481Z,57.46
2023-05-31T08:10:44.103Z,57.27
2023-05-31T08:13:11.662Z,57.18
2023-05-31T08:15:38.142Z,57.12
2023-05-31T08:18:04.933Z,57.45
2023-05-31T08:20:32.498Z,57.08
2023-05-31T08:22:59.230Z,57.16
2023-05-31T08:25:25.731Z,57.07
2023-05-31T08:27:52.294Z,56.92
2023-05-31T08:30:18.793Z,56.74
2023-05-31T08:32:45.507Z,56.26
2023-05-31T08:35:12.117Z,56.85
2023-05-31T08:37:38.916Z,56.70
2023-05-31T08:40:06.824Z,56.61
2023-05-31T08:43:17.476Z,56.89
2023-05-31T08:45:44.500Z,56.72
2023-05-31T08:48:18.441Z,56.59
2023-05-31T08:50:46.162Z,56.39
2023-05-31T08:53:13.735Z,56.34
2023-05-31T08:55:41.329Z,56.36
2023-05-31T08:58:08.421Z,56.33
2023-05-31T09:00:37.062Z,56.17
2023-05-31T09:03:07.065Z,56.40
2023-05-31T09:05:33.872Z,56.53
2023-05-31T09:08:01.132Z,56.42
2023-05-31T09:10:27.564Z,56.27
2023-05-31T09:12:54.811Z,56.27
2023-05-31T09:15:24.957Z,55.93
2023-05-31T09:17:52.051Z,55.90
2023-05-31T09:20:21.884Z,56.32
2023-05-31T09:22:52.229Z,56.20
2023-05-31T09:25:18.851Z,56.03
2023-05-31T09:27:45.304Z,56.01
2023-05-31T09:30:13.748Z,55.97
2023-05-31T09:32:41.151Z,55.97
2023-05-31T09:35:15.710Z,55.82
2023-05-31T09:37:46.618Z,55.47
2023-05-31T09:40:24.403Z,55.85
2023-05-31T09:42:51.845Z,55.24
2023-05-31T09:45:19.255Z,55.24
2023-05-31T09:47:45.861Z,55.05
2023-05-31T09:50:16.375Z,55.46
2023-05-31T09:52:44.633Z,55.71
2023-05-31T09:55:12.022Z,55.39
2023-05-31T09:57:44.890Z,55.38
2023-05-31T10:00:22.125Z,54.96
2023-05-31T10:02:52.435Z,54.64
2023-05-31T10:05:20.562Z,54.83
2023-05-31T10:07:49.713Z,54.75
2023-05-31T10:10:21.090Z,54.94
2023-05-31T10:12:52.475Z,54.78
2023-05-31T10:15:26.632Z,54.09
2023-05-31T10:18:01.142Z,54.45
2023-05-31T10:20:34.052Z,54.80
2023-05-31T10:23:04.704Z,54.68
2023-05-31T10:25:52.621Z,54.07
2023-05-31T10:28:22.381Z,53.04
2023-05-31T10:30:52.197Z,53.99
2023-05-31T10:33:21.410Z,54.47
2023-05-31T10:35:49.698Z,54.39
2023-05-31T10:38:18.638Z,54.00
2023-05-31T10:40:54.708Z,54.28
2023-05-31T10:43:31.243Z,54.21
2023-05-31T10:46:03.725Z,54.07
2023-05-31T10:48:46.659Z,54.35
2023-05-31T10:51:13.646Z,53.95
2023-05-31T10:53:41.317Z,53.84
2023-05-31T10:56:10.864Z,54.02
2023-05-31T10:58:39.725Z,53.24
2023-05-31T11:01:09.927Z,53.34
2023-05-31T11:03:45.161Z,53.45
2023-05-31T11:06:14.360Z,53.32
2023-05-31T11:08:59.092Z,52.98
2023-05-31T11:11:26.339Z,52.83
2023-05-31T11:14:09.602Z,51.97
2023-05-31T11:16:45.460Z,51.80
2023-05-31T11:19:17.167Z,51.21
2023-05-31T11:21:47.502Z,51.19
2023-05-31T11:24:29.805Z,51.80
2023-05-31T11:26:59.471Z,51.15
2023-05-31T11:29:26.972Z,51.51
2023-05-31T11:31:56.803Z,51.47
2023-05-31T11:34:29.578Z,51.52
2023-05-31T11:37:01.583Z,51.36
2023-05-31T11:39:28.555Z,51.73
2023-05-31T11:41:55.939Z,51.66
2023-05-31T11:44:29.538Z,51.63
2023-05-31T11:47:01.467Z,51.19
2023-05-31T11:49:28.835Z,50.84
2023-05-31T11:51:56.640Z,50.82
2023-05-31T11:54:28.342Z,49.85
2023-05-31T11:57:01.212Z,48.12
2023-05-31T11:59:28.540Z,45.91
2023-05-31T12:02:00.185Z,42.73
2023-05-31T12:04:35.254Z,40.62
2023-05-31T12:07:02.348Z,38.78
2023-05-31T12:09:29.258Z,37.32
2023-05-31T12:11:56.962Z,36.52
2023-05-31T12:14:26.089Z,36.54
2023-05-31T12:16:52.822Z,37.08
2023-05-31T12:19:19.373Z,39.13
2023-05-31T12:21:46.281Z,41.70
2023-05-31T12:24:14.506Z,43.22
2023-05-31T12:26:43.989Z,43.92
2023-05-31T12:29:11.934Z,45.06
2023-05-31T12:31:38.844Z,45.77
2023-05-31T12:34:05.441Z,46.59
2023-05-31T12:36:45.373Z,46.95
2023-05-31T12:39:18.628Z,47.20
2023-05-31T12:41:46.712Z,47.48
2023-05-31T12:44:21.467Z,47.65
2023-05-31T12:46:52.888Z,47.62
2023-05-31T12:49:29.845Z,47.66
2023-05-31T12:52:15.818Z,47.70
2023-05-31T12:54:44.274Z,47.86
2023-05-31T12:57:12.630Z,47.46
2023-05-31T12:59:39.190Z,47.90
2023-05-31T13:02:06.692Z,48.30
2023-05-31T13:04:34.011Z,48.00
2023-05-31T13:07:02.726Z,48.48
2023-05-31T13:09:29.234Z,48.57
2023-05-31T13:11:55.681Z,48.59
2023-05-31T13:14:26.227Z,48.19
2023-05-31T13:16:54.381Z,48.74
2023-05-31T13:19:21.129Z,48.49
2023-05-31T13:21:47.556Z,48.61
2023-05-31T13:24:14.909Z,48.82
2023-05-31T13:26:42.181Z,48.44
2023-05-31T13:29:08.619Z,48.54
2023-05-31T13:31:35.130Z,48.77
2023-05-31T13:34:01.614Z,48.77
2023-05-31T13:36:28.248Z,48.92
2023-05-31T13:38:54.853Z,48.97
2023-05-31T13:41:24.518Z,49.00
2023-05-31T13:43:51.638Z,48.91
2023-05-31T13:46:19.540Z,48.97
2023-05-31T13:48:46.671Z,49.39
2023-05-31T13:51:13.232Z,49.03
2023-05-31T13:53:42.582Z,49.06
2023-05-31T13:56:09.886Z,49.23
2023-05-31T13:58:37.493Z,49.57
2023-05-31T14:01:06.139Z,49.27
2023-05-31T14:03:33.016Z,49.48
2023-05-31T14:05:59.697Z,49.84
2023-05-31T14:08:26.490Z,49.84
2023-05-31T14:10:53.548Z,49.87
2023-05-31T14:13:20.247Z,49.89
2023-05-31T14:15:47.053Z,49.78
2023-05-31T14:18:13.481Z,49.88
2023-05-31T14:20:39.890Z,49.87
2023-05-31T14:23:06.429Z,50.02
2023-05-31T14:25:32.895Z,50.06
2023-05-31T14:27:59.432Z,50.08
2023-05-31T14:30:27.693Z,49.97
2023-05-31T14:32:54.437Z,50.18
2023-05-31T14:35:22.098Z,50.22
2023-05-31T14:37:53.001Z,50.28
2023-05-31T14:40:28.808Z,50.40
2023-05-31T14:42:55.367Z,50.37
2023-05-31T14:45:21.835Z,50.58
2023-05-31T14:50:14.721Z,50.56
2023-05-31T14:52:41.209Z,50.69
2023-05-31T14:55:08.021Z,50.88
2023-05-31T14:57:34.511Z,50.93
2023-05-31T15:00:00.952Z,51.01
2023-05-31T15:02:27.381Z,50.99
2023-05-31T15:04:53.794Z,51.05
2023-05-31T15:07:20.382Z,51.10
2023-05-31T15:09:46.811Z,51.01
2023-05-31T15:12:13.247Z,51.30
2023-05-31T15:14:39.698Z,51.03
2023-05-31T15:17:06.185Z,51.12
2023-05-31T15:19:32.652Z,51.48
2023-05-31T15:21:59.125Z,51.37
2023-05-31T15:24:25.784Z,51.48
2023-05-31T15:26:53.302Z,51.58
2023-05-31T15:29:19.969Z,51.34
2023-05-31T15:31:46.467Z,51.58
2023-05-31T15:34:13.045Z,51.56
2023-05-31T15:36:39.424Z,51.50
2023-05-31T15:39:05.979Z,51.73
2023-05-31T15:41:34.712Z,52.06
2023-05-31T15:44:03.206Z,51.91
2023-05-31T15:46:29.795Z,51.88
2023-05-31T15:48:56.372Z,52.74
2023-05-31T15:51:23.015Z,51.86
2023-05-31T15:53:49.844Z,51.90
2023-05-31T15:56:17.094Z,51.88
2023-05-31T15:58:43.523Z,51.09
2023-05-31T16:01:10.057Z,49.09
2023-05-31T16:03:36.554Z,46.85
2023-05-31T16:06:05.253Z,47.42
2023-05-31T16:08:34.841Z,48.79
2023-05-31T16:11:03.232Z,49.27
2023-05-31T16:13:29.656Z,49.81
2023-05-31T16:15:56.137Z,50.92
2023-05-31T16:18:22.602Z,51.01
2023-05-31T16:20:49.032Z,51.74
2023-05-31T16:23:15.398Z,52.14
2023-05-31T16:25:41.930Z,53.10
2023-05-31T16:28:08.316Z,53.42
2023-05-31T16:30:34.851Z,53.78
2023-05-31T16:33:01.357Z,54.53
2023-05-31T16:35:27.885Z,55.44
2023-05-31T16:37:54.317Z,56.29
2023-05-31T16:40:23.667Z,56.50
2023-05-31T16:42:51.128Z,58.11
2023-05-31T16:45:17.683Z,58.63
2023-05-31T16:47:44.186Z,58.97
2023-05-31T16:50:10.910Z,58.99
2023-05-31T16:52:37.491Z,58.95
2023-05-31T16:55:04.327Z,58.11
2023-05-31T16:57:30.889Z,58.27
2023-05-31T16:59:57.330Z,58.69
2023-05-31T17:02:23.793Z,58.48
2023-05-31T17:04:50.255Z,58.44
2023-05-31T17:07:16.867Z,58.26
2023-05-31T17:09:43.311Z,57.51
2023-05-31T17:12:11.089Z,55.73
2023-05-31T17:14:37.582Z,53.83
2023-05-31T17:17:04.366Z,53.63
2023-05-31T17:19:31.355Z,54.37
2023-05-31T17:21:58.805Z,54.15
2023-05-31T17:24:25.450Z,53.63
2023-05-31T17:26:51.886Z,53.81
2023-05-31T17:29:19.399Z,54.21
2023-05-31T17:31:47.772Z,54.99
2023-05-31T17:34:14.714Z,54.22
2023-05-31T17:36:41.252Z,53.57
2023-05-31T17:39:07.634Z,53.25
2023-05-31T17:41:34.152Z,53.61
2023-05-31T17:44:00.571Z,53.25
2023-05-31T17:46:27.031Z,53.40
2023-05-31T17:48:53.504Z,53.27
2023-05-31T17:51:20.552Z,53.38
2023-05-31T17:53:47.013Z,53.00
2023-05-31T17:56:13.456Z,53.13
2023-05-31T17:58:39.874Z,53.08
2023-05-31T18:01:06.400Z,53.48
2023-05-31T18:03:32.984Z,53.84
2023-05-31T18:05:59.519Z,54.19
2023-05-31T18:08:26.722Z,54.51
2023-05-31T18:10:53.087Z,54.30
2023-05-31T18:13:19.570Z,54.44
2023-05-31T18:15:46.417Z,54.62
2023-05-31T18:18:12.905Z,54.99
2023-05-31T18:20:39.393Z,55.04
2023-05-31T18:23:05.841Z,55.25
2023-05-31T18:25:32.310Z,55.36
2023-05-31T18:27:58.757Z,55.94
2023-05-31T18:30:25.218Z,55.76
2023-05-31T18:32:51.736Z,56.28
2023-05-31T18:35:19.247Z,56.72
2023-05-31T18:37:45.809Z,57.00
2023-05-31T18:40:12.541Z,57.02
2023-05-31T18:42:39.056Z,57.35
2023-05-31T18:45:06.630Z,57.33
2023-05-31T18:47:33.252Z,56.63
2023-05-31T18:49:59.761Z,57.19
2023-05-31T18:52:27.143Z,57.26
2023-05-31T18:54:53.794Z,57.40
2023-05-31T18:57:21.026Z,57.50
2023-05-31T18:59:47.627Z,57.07
2023-05-31T19:02:14.063Z,57.21
2023-05-31T19:04:40.545Z,58.16
2023-05-31T19:07:07.228Z,57.44
2023-05-31T19:09:33.662Z,57.38
2023-05-31T19:12:00.217Z,57.12
2023-05-31T19:14:26.640Z,57.93
2023-05-31T19:16:53.239Z,57.32
2023-05-31T19:19:19.698Z,57.71
2023-05-31T19:21:46.303Z,57.91
2023-05-31T19:24:12.935Z,57.53
2023-05-31T19:26:39.504Z,57.65
2023-05-31T19:29:06.090Z,57.49
2023-05-31T19:31:34.074Z,57.63
2023-05-31T19:34:00.886Z,57.66
2023-05-31T19:36:27.361Z,57.60
2023-05-31T19:38:53.957Z,57.71
2023-05-31T19:41:21.205Z,57.72
2023-05-31T19:43:47.694Z,58.07
2023-05-31T19:46:24.101Z,57.78
2023-05-31T19:48:52.426Z,57.98
2023-05-31T19:51:19.581Z,57.78
2023-05-31T19:53:46.007Z,58.08
2023-05-31T19:56:12.412Z,57.63
2023-05-31T19:58:39.157Z,57.59
2023-05-31T20:01:05.803Z,58.24
2023-05-31T20:03:32.478Z,58.15
2023-05-31T20:05:59.685Z,58.16
2023-05-31T20:08:26.689Z,57.89
2023-05-31T20:10:53.333Z,57.73
2023-05-31T20:13:19.860Z,58.02
2023-05-31T20:15:47.367Z,58.26
2023-05-31T20:18:14.879Z,57.95
2023-05-31T20:20:41.329Z,58.20
2023-05-31T20:23:07.769Z,58.33
2023-05-31T20:25:34.257Z,58.52
2023-05-31T20:28:01.137Z,58.25
2023-05-31T20:30:27.643Z,58.85
2023-05-31T20:32:54.090Z,58.41
2023-05-31T20:35:20.658Z,58.33
2023-05-31T20:37:48.026Z,58.32
2023-05-31T20:40:14.485Z,58.50
2023-05-31T20:42:40.950Z,58.86
2023-05-31T20:45:08.968Z,58.54
2023-05-31T20:47:35.524Z,58.69
2023-05-31T20:50:02.054Z,58.58
2023-05-31T20:52:28.447Z,58.79
2023-05-31T20:54:55.277Z,58.47
2023-05-31T20:57:21.847Z,58.36
2023-05-31T20:59:48.745Z,58.96
2023-05-31T21:02:15.291Z,58.62
2023-05-31T21:04:41.766Z,58.83
2023-05-31T21:07:08.270Z,58.89
2023-05-31T21:09:34.712Z,59.21
2023-05-31T21:12:01.080Z,59.35
2023-05-31T21:14:27.498Z,58.94
2023-05-31T21:16:55.692Z,58.94
2023-05-31T21:19:22.528Z,59.21
2023-05-31T21:21:49.055Z,58.78
2023-05-31T21:24:15.508Z,59.25
2023-05-31T21:26:42.023Z,58.93
2023-05-31T21:29:08.408Z,59.03
2023-05-31T21:31:35.101Z,59.03
2023-05-31T21:34:01.604Z,59.39
2023-05-31T21:36:28.174Z,58.81
2023-05-31T21:38:54.642Z,59.08
2023-05-31T21:41:21.300Z,59.05
2023-05-31T21:43:47.779Z,59.15
2023-05-31T21:46:14.262Z,59.25
2023-05-31T21:48:40.780Z,59.14
2023-05-31T21:51:07.159Z,58.98
2023-05-31T21:53:33.529Z,58.97
2023-05-31T21:55:59.980Z,59.16
2023-05-31T21:58:26.425Z,59.15
2023-05-31T22:00:52.984Z,58.84
2023-05-31T22:03:19.439Z,59.07
2023-05-31T22:05:46.026Z,59.28
2023-05-31T22:08:12.757Z,59.04
2023-05-31T22:10:39.163Z,58.86
2023-05-31T22:13:05.576Z,58.61
2023-05-31T22:15:34.625Z,58.76
2023-05-31T22:18:02.721Z,58.79
2023-05-31T22:20:29.309Z,59.04
2023-05-31T22:22:57.055Z,58.89
2023-05-31T22:25:23.559Z,58.74
2023-05-31T22:27:50.021Z,59.11
2023-05-31T22:30:16.474Z,58.95
2023-05-31T22:32:43.018Z,58.64
2023-05-31T22:35:10.216Z,59.11
2023-05-31T22:37:38.279Z,58.55
2023-05-31T22:40:05.277Z,58.97
2023-05-31T22:42:31.660Z,58.86
2023-05-31T22:44:58.063Z,58.83
2023-05-31T22:47:24.498Z,58.62
2023-05-31T22:49:50.889Z,58.82
2023-05-31T22:52:20.882Z,58.74
2023-05-31T22:54:47.822Z,58.59
2023-05-31T22:57:14.209Z,58.42
2023-05-31T22:59:40.614Z,58.53
2023-05-31T23:02:07.168Z,58.29
2023-05-31T23:04:34.483Z,58.22
2023-05-31T23:07:02.328Z,57.93
2023-05-31T23:09:30.972Z,58.74
2023-05-31T23:12:01.093Z,58.33
2023-05-31T23:14:27.556Z,58.52
2023-05-31T23:16:54.299Z,58.63
2023-05-31T23:19:20.796Z,58.75
2023-05-31T23:21:47.993Z,58.38
2023-05-31T23:24:14.462Z,58.27
2023-05-31T23:26:40.907Z,58.62
2023-05-31T23:29:07.454Z,58.07
2023-05-31T23:31:33.934Z,58.50
2023-05-31T23:34:00.334Z,58.17
2023-05-31T23:36:26.907Z,58.11
2023-05-31T23:38:53.434Z,58.45
2023-05-31T23:41:20.021Z,58.14
2023-05-31T23:43:46.760Z,58.06
2023-05-31T23:46:13.308Z,58.21
2023-05-31T23:48:39.801Z,58.35
2023-05-31T23:51:08.757Z,58.24
2023-05-31T23:53:36.000Z,58.19
2023-05-31T23:56:02.823Z,58.03
2023-05-31T23:58:30.962Z,58.44
